MMZC/ZCL METAR and TAF weather

Enter ICAO airport designator
Station Type Date Time Source
MMZC METAR 2019/02/20 06:46 UTC NOAA

MMZC 200646Z 20020KT 8SM SKC 11/03 A3011


Station Type Date Time Source
MMZC Decoded METAR 2019/02/20 06:46 UTC NOAA

Zacatecas Airport, Mexico (MMZC) 22-54N 102-41W
Feb 20, 2019 - 01:46 AM EST / 2019.02.20 0646 UTC
Wind: from the SSW (200 degrees) at 23 MPH (20 KT):0
Visibility: 8 mile(s):0
Sky conditions: clear
Temperature: 51 F (11 C)
Dew Point: 37 F (3 C)
Relative Humidity: 57%
Pressure (altimeter): 30.11 in. Hg (1019 hPa)
ob: MMZC 200646Z 20020KT 8SM SKC 11/03 A3011
cycle: 7

Station Type Date Time Source
MMZC TAF 2019/02/20 06:42 UTC NOAA

TAF MMZC 200436Z 2006/2112 20015KT P6SM SKC TX22/2021Z TN09/2012Z
FM201600 23015G25KT P6SM SCT250
FM210200 23010KT P6SM SCT250


Example: see airport list